createdAt,value
2022-09-10T00:04:34.236Z,2.23
2022-09-10T00:09:35.937Z,3.53
2022-09-10T00:14:39.021Z,2.20
2022-09-10T00:19:40.724Z,1.40
2022-09-10T00:24:42.456Z,1.97
2022-09-10T00:29:45.432Z,3.13
2022-09-10T00:34:47.851Z,1.50
2022-09-10T00:39:49.543Z,3.03
2022-09-10T00:45:05.803Z,3.63
2022-09-10T00:50:16.587Z,1.47
2022-09-10T00:55:19.328Z,4.80
2022-09-10T01:00:23.075Z,2.90
2022-09-10T01:05:25.816Z,1.87
2022-09-10T01:10:30.940Z,3.23
2022-09-10T01:15:42.237Z,4.50
2022-09-10T01:20:58.005Z,2.63
2022-09-10T01:26:12.066Z,4.27
2022-09-10T01:31:23.145Z,1.63
2022-09-10T01:36:29.907Z,2.20
2022-09-10T01:41:31.647Z,1.23
2022-09-10T01:46:43.325Z,6.60
2022-09-10T01:52:03.648Z,1.83
2022-09-10T01:57:14.969Z,4.23
2022-09-10T02:02:23.401Z,2.60
2022-09-10T02:07:27.821Z,2.17
2022-09-10T02:12:29.767Z,2.10
2022-09-10T02:17:35.600Z,1.97
2022-09-10T02:22:39.613Z,3.90
2022-09-10T02:27:41.295Z,3.37
2022-09-10T02:32:44.393Z,3.10
2022-09-10T02:37:46.367Z,1.63
2022-09-10T02:42:48.058Z,2.67
2022-09-10T02:47:51.052Z,1.90
2022-09-10T02:52:52.747Z,2.57
2022-09-10T02:57:54.868Z,2.47
2022-09-10T03:03:02.828Z,3.43
2022-09-10T03:08:05.586Z,2.10
2022-09-10T03:13:07.337Z,2.10
2022-09-10T03:18:10.412Z,2.00
2022-09-10T03:23:12.186Z,2.57
2022-09-10T03:28:13.894Z,2.03
2022-09-10T03:33:16.920Z,2.57
2022-09-10T03:38:18.804Z,2.73
2022-09-10T03:43:20.855Z,3.73
2022-09-10T03:48:23.880Z,1.80
2022-09-10T03:53:25.809Z,3.07
2022-09-10T03:58:27.506Z,1.90
2022-09-10T04:03:30.789Z,2.77
2022-09-10T04:08:32.451Z,1.93
2022-09-10T04:13:34.163Z,2.03
2022-09-10T04:18:37.557Z,4.33
2022-09-10T04:23:39.737Z,1.77
2022-09-10T04:28:41.848Z,2.07
2022-09-10T04:33:45.258Z,1.77
2022-09-10T04:38:47.442Z,2.10
2022-09-10T04:43:49.435Z,2.23
2022-09-10T04:48:52.436Z,1.80
2022-09-10T04:53:54.176Z,2.10
2022-09-10T04:58:55.767Z,2.10
2022-09-10T05:03:59.069Z,4.27
2022-09-10T05:09:00.729Z,4.03
2022-09-10T05:14:03.179Z,4.10
2022-09-10T05:19:06.785Z,4.70
2022-09-10T05:24:09.191Z,2.90
2022-09-10T05:29:11.366Z,2.17
2022-09-10T05:34:14.821Z,3.40
2022-09-10T05:39:16.680Z,2.50
2022-09-10T05:44:18.308Z,4.40
2022-09-10T05:49:21.620Z,3.17
2022-09-10T05:54:23.408Z,3.90
2022-09-10T05:59:25.064Z,3.53
2022-09-10T06:04:28.557Z,1.80
2022-09-10T06:09:30.178Z,1.43
2022-09-10T06:14:32.266Z,2.43
2022-09-10T06:19:35.461Z,4.60
2022-09-10T06:24:37.468Z,2.30
2022-09-10T06:29:39.407Z,4.87
2022-09-10T06:34:42.406Z,3.70
2022-09-10T06:39:44.265Z,2.60
2022-09-10T06:44:45.869Z,3.60
2022-09-10T06:49:48.824Z,3.63
2022-09-10T06:54:50.565Z,2.40
2022-09-10T06:59:52.725Z,3.27
2022-09-10T07:04:55.668Z,2.20
2022-09-10T07:09:57.440Z,4.17
2022-09-10T07:14:59.537Z,1.93
2022-09-10T07:20:03.109Z,2.23
2022-09-10T07:25:06.103Z,0.90
2022-09-10T07:30:08.979Z,1.93
2022-09-10T07:35:12.165Z,1.80
2022-09-10T07:40:14.512Z,4.37
2022-09-10T07:45:16.455Z,2.17
2022-09-10T07:50:19.878Z,1.90
2022-09-10T07:55:21.604Z,1.00
2022-09-10T08:00:23.233Z,1.47
2022-09-10T08:05:26.223Z,2.63
2022-09-10T08:10:28.025Z,2.03
2022-09-10T08:15:29.641Z,1.10
2022-09-10T08:20:32.634Z,1.47
2022-09-10T08:25:34.546Z,1.63
2022-09-10T08:30:36.235Z,1.80
2022-09-10T08:35:39.230Z,2.30
2022-09-10T08:40:42.101Z,1.87
2022-09-10T08:45:49.292Z,1.17
2022-09-10T08:50:57.063Z,0.60
2022-09-10T08:56:02.245Z,2.07
2022-09-10T09:01:05.403Z,1.07
2022-09-10T09:06:16.579Z,2.87
2022-09-10T09:11:29.016Z,1.27
2022-09-10T09:16:41.928Z,3.37
2022-09-10T09:21:50.998Z,3.33
2022-09-10T09:26:59.257Z,1.43
2022-09-10T09:32:05.231Z,0.60
2022-09-10T09:37:15.777Z,1.35
2022-09-10T09:42:24.526Z,1.80
2022-09-10T09:47:26.190Z,1.55
2022-09-10T09:52:31.509Z,0.98
2022-09-10T09:57:33.296Z,2.05
2022-09-10T10:02:36.886Z,1.55
2022-09-10T10:07:40.080Z,0.75
2022-09-10T10:12:49.599Z,4.28
2022-09-10T10:17:51.320Z,1.20
2022-09-10T10:22:54.373Z,1.15
2022-09-10T10:27:56.473Z,0.88
2022-09-10T10:32:59.518Z,0.70
2022-09-10T10:38:19.845Z,0.70
2022-09-10T10:43:35.076Z,1.10
2022-09-10T10:48:51.156Z,0.75
2022-09-10T10:54:10.178Z,2.72
2022-09-10T10:59:24.152Z,1.73
2022-09-10T11:04:34.332Z,0.68
2022-09-10T11:09:42.834Z,1.30
2022-09-10T11:14:49.540Z,0.80
2022-09-10T11:20:24.578Z,2.17
2022-09-10T11:25:28.893Z,1.88
2022-09-10T11:30:33.651Z,1.60
2022-09-10T11:35:41.199Z,0.38
2022-09-10T11:40:50.185Z,0.52
2022-09-10T11:45:56.812Z,0.68
2022-09-10T11:51:03.355Z,0.80
2022-09-10T11:56:48.029Z,1.90
2022-09-10T12:02:28.120Z,0.52
2022-09-10T12:07:45.602Z,0.40
2022-09-10T12:12:49.641Z,0.52
2022-09-10T12:17:56.400Z,1.17
2022-09-10T12:22:59.180Z,0.63
2022-09-10T12:28:04.635Z,0.50
2022-09-10T12:33:57.791Z,0.60
2022-09-10T12:39:21.539Z,0.40
2022-09-10T12:44:43.011Z,0.43
2022-09-10T12:49:46.330Z,0.90
2022-09-10T12:54:57.151Z,0.98
2022-09-10T13:00:24.755Z,0.70
2022-09-10T13:05:30.940Z,0.98
2022-09-10T13:10:33.571Z,2.63
2022-09-10T13:15:39.197Z,0.50
2022-09-10T13:20:41.308Z,1.40
2022-09-10T13:25:45.441Z,1.27
2022-09-10T13:30:58.213Z,0.50
2022-09-10T13:36:16.558Z,0.77
2022-09-10T13:41:40.440Z,1.90
2022-09-10T13:46:47.455Z,0.67
2022-09-10T13:51:52.257Z,0.80
2022-09-10T13:56:55.555Z,0.77
2022-09-10T14:01:58.819Z,0.82
2022-09-10T14:07:05.235Z,1.52
2022-09-10T14:12:09.411Z,1.75
2022-09-10T14:17:16.050Z,1.58
2022-09-10T14:22:19.769Z,3.17
2022-09-10T14:27:26.667Z,1.00
2022-09-10T14:32:31.593Z,1.45
2022-09-10T14:37:35.292Z,0.82
2022-09-10T14:42:37.264Z,0.82
2022-09-10T14:47:51.766Z,0.75
2022-09-10T14:52:53.791Z,2.63
2022-09-10T14:57:56.314Z,2.25
2022-09-10T15:02:59.954Z,1.02
2022-09-10T15:08:02.921Z,2.78
2022-09-10T15:13:05.547Z,0.90
2022-09-10T15:18:12.051Z,0.90
2022-09-10T15:23:14.101Z,2.17
2022-09-10T15:28:16.586Z,3.55
2022-09-10T15:33:20.142Z,5.35
2022-09-10T15:38:22.208Z,2.15
2022-09-10T15:43:24.180Z,2.73
2022-09-10T15:48:27.149Z,5.40
2022-09-10T15:53:29.698Z,1.33
2022-09-10T15:58:31.358Z,1.20
2022-09-10T16:03:34.877Z,1.47
2022-09-10T16:08:36.668Z,2.33
2022-09-10T16:13:38.477Z,2.23
2022-09-10T16:18:41.791Z,1.13
2022-09-10T16:23:43.683Z,1.93
2022-09-10T16:28:49.108Z,2.03
2022-09-10T16:34:00.150Z,1.10
2022-09-10T16:39:02.289Z,2.83
2022-09-10T16:44:04.898Z,1.30
2022-09-10T16:49:11.149Z,1.50
2022-09-10T16:54:14.959Z,1.63
2022-09-10T16:59:18.842Z,4.73
2022-09-10T17:04:28.170Z,4.63
2022-09-10T17:09:30.969Z,4.47
2022-09-10T17:14:32.764Z,3.23
2022-09-10T17:19:36.168Z,3.10
2022-09-10T17:24:38.049Z,3.77
2022-09-10T17:29:39.702Z,2.70
2022-09-10T17:34:43.057Z,3.93
2022-09-10T17:39:44.900Z,5.47
2022-09-10T17:44:49.211Z,5.37
2022-09-10T17:49:52.597Z,4.77
2022-09-10T17:54:54.967Z,3.57
2022-09-10T17:59:59.199Z,2.33
2022-09-10T18:05:02.448Z,2.63
2022-09-10T18:10:04.889Z,2.23
2022-09-10T18:15:07.182Z,2.57
2022-09-10T18:20:10.668Z,3.27
2022-09-10T18:25:12.302Z,2.17
2022-09-10T18:30:14.005Z,2.30
2022-09-10T18:35:17.247Z,2.00
2022-09-10T18:40:19.278Z,6.33
2022-09-10T18:45:20.928Z,3.20
2022-09-10T18:50:23.987Z,2.57
2022-09-10T18:55:25.939Z,3.63
2022-09-10T19:00:27.729Z,4.00
2022-09-10T19:05:31.130Z,3.80
2022-09-10T19:10:33.108Z,4.93
2022-09-10T19:15:35.252Z,5.00
2022-09-10T19:20:38.284Z,4.40
2022-09-10T19:25:40.226Z,4.07
2022-09-10T19:30:42.274Z,3.27
2022-09-10T19:35:45.787Z,4.53
2022-09-10T19:40:47.830Z,3.97
2022-09-10T19:45:54.593Z,3.73
2022-09-10T19:50:58.045Z,4.47
2022-09-10T19:56:03.574Z,4.13
2022-09-10T20:01:09.468Z,4.13
2022-09-10T20:06:14.869Z,7.93
2022-09-10T20:11:20.395Z,6.80
2022-09-10T20:16:22.927Z,7.37
2022-09-10T20:21:28.418Z,5.13
2022-09-10T20:26:31.717Z,6.20
2022-09-10T20:31:35.663Z,8.23
2022-09-10T20:36:39.565Z,8.17
2022-09-10T20:41:41.936Z,8.57
2022-09-10T20:46:44.361Z,8.23
2022-09-10T20:51:47.704Z,5.33
2022-09-10T20:56:49.857Z,7.03
2022-09-10T21:01:51.805Z,6.87
2022-09-10T21:06:55.158Z,5.80
2022-09-10T21:11:56.776Z,6.80
2022-09-10T21:16:59.176Z,5.30
2022-09-10T21:22:02.300Z,5.40
2022-09-10T21:27:04.697Z,5.57
2022-09-10T21:32:06.712Z,6.03
2022-09-10T21:37:10.169Z,7.40
2022-09-10T21:42:11.967Z,7.57
2022-09-10T21:47:14.042Z,6.53
2022-09-10T21:52:17.221Z,6.87
2022-09-10T21:57:19.435Z,6.07
2022-09-10T22:02:21.368Z,6.20
2022-09-10T22:07:24.806Z,6.00
2022-09-10T22:12:26.994Z,7.73
2022-09-10T22:17:28.996Z,6.93
2022-09-10T22:22:34.442Z,6.17
2022-09-10T22:27:36.384Z,5.83
2022-09-10T22:32:38.425Z,6.10
2022-09-10T22:37:41.712Z,5.63
2022-09-10T22:42:43.579Z,8.60
2022-09-10T22:47:45.891Z,6.03
2022-09-10T22:52:49.246Z,6.33
2022-09-10T22:57:51.394Z,6.40
2022-09-10T23:02:53.492Z,7.30
2022-09-10T23:07:57.045Z,7.67
2022-09-10T23:12:59.051Z,7.83
2022-09-10T23:18:00.692Z,7.10
2022-09-10T23:23:04.042Z,8.83
2022-09-10T23:28:07.400Z,9.87
2022-09-10T23:33:09.086Z,7.93
2022-09-10T23:38:12.312Z,7.70
2022-09-10T23:43:14.434Z,7.80
2022-09-10T23:48:16.518Z,5.83
2022-09-10T23:53:21.430Z,8.40
2022-09-10T23:58:23.962Z,9.27
